Time;durP1;ratioP1;P1;durP2;ratioP2;P2;SDS_P1;SDS_P2;PMS_P1;PMS_P2;Temp;Humidity;BMP_temperature;BMP_pressure;BME280_temperature;BME280_humidity;BME280_pressure;Samples;Min_cycle;Max_cycle;Signal;HPM_P1;HPM_P2
2022/06/01 00:02:33;;;;;;;13.98;2.60;;;;;;;16.56;57.57;99991.06;10499923;28;20411;-74
2022/06/01 00:07:34;;;;;;;23.17;5.97;;;;;;;16.77;57.69;100030.16;10500563;28;20044;-74
2022/06/01 00:12:35;;;;;;;21.70;6.68;;;;;;;16.98;57.99;100069.25;10500589;28;20127;-74
2022/06/01 00:17:36;;;;;;;16.38;5.03;;;;;;;17.05;58.58;100129.03;10499850;28;20561;-74
2022/06/01 00:22:37;;;;;;;13.02;3.97;;;;;;;16.78;59.56;100149.81;10482593;28;20051;-74
2022/06/01 00:27:38;;;;;;;13.05;2.95;;;;;;;16.76;60.23;100149.25;10499140;28;20072;-74
2022/06/01 00:32:39;;;;;;;34.85;4.90;;;;;;;16.73;60.19;100137.03;10499287;28;20045;-74
2022/06/01 00:37:40;;;;;;;30.13;5.00;;;;;;;15.85;60.30;100003.53;10498063;28;20036;-74
2022/06/01 00:42:45;;;;;;;9.93;3.33;;;;;;;16.58;61.84;100139.16;10457846;28;20037;-74
2022/06/01 00:47:46;;;;;;;11.63;3.83;;;;;;;16.03;61.30;100090.47;10457368;28;20091;-74
2022/06/01 00:52:53;;;;;;;9.00;2.60;;;;;;;16.08;63.07;100104.88;10457749;28;20139;-74
2022/06/01 00:58:05;;;;;;;21.52;3.17;;;;;;;16.35;63.63;100159.22;10456295;28;20040;-74
2022/06/01 01:03:10;;;;;;;8.77;2.20;;;;;;;14.60;63.34;99860.88;10438030;28;20041;-74
2022/06/01 01:08:12;;;;;;;12.65;2.67;;;;;;;16.18;63.43;100148.16;10456629;28;20037;-73
2022/06/01 01:13:14;;;;;;;11.40;2.60;;;;;;;16.08;64.42;100173.72;10456240;28;20095;-74
2022/06/01 01:18:17;;;;;;;11.15;2.40;;;;;;;14.66;63.88;99937.59;10455511;28;20123;-74
2022/06/01 01:23:31;;;;;;;6.88;2.25;;;;;;;16.06;63.23;100162.38;10455510;28;20053;-73
2022/06/01 01:28:32;;;;;;;41.55;5.00;;;;;;;15.97;63.22;100159.94;10454802;28;20029;-73
2022/06/01 01:33:33;;;;;;;10.23;2.53;;;;;;;15.93;64.04;100180.13;10455452;28;20036;-74
2022/06/01 01:38:43;;;;;;;10.77;2.58;;;;;;;15.97;63.91;100173.34;10454807;28;20064;-73
2022/06/01 01:44:06;;;;;;;13.07;2.05;;;;;;;15.85;65.91;100137.47;10455131;28;20076;-74
2022/06/01 01:49:08;;;;;;;6.45;2.25;;;;;;;15.81;64.05;100173.75;10455030;28;20384;-73
2022/06/01 01:54:21;;;;;;;10.68;2.40;;;;;;;15.72;66.27;100180.34;10455246;28;20061;-74
2022/06/01 01:59:37;;;;;;;8.63;2.60;;;;;;;14.29;64.85;99945.09;10454770;28;20052;-74
2022/06/01 02:15:41;;;;;;;9.60;3.35;;;;;;;16.36;61.90;100193.06;10454385;28;20109;-74
2022/06/01 02:20:48;;;;;;;8.00;2.65;;;;;;;16.19;59.64;100065.91;10454429;28;20439;-74
2022/06/01 02:25:50;;;;;;;125.75;10.40;;;;;;;17.71;58.76;100189.53;10454065;28;20053;-74
2022/06/01 02:30:54;;;;;;;32.92;5.53;;;;;;;17.75;57.71;100120.91;10453590;28;20041;-73
2022/06/01 02:35:58;;;;;;;14.47;3.97;;;;;;;18.69;55.92;100216.53;10453706;28;20091;-74
2022/06/01 02:41:02;;;;;;;12.65;3.42;;;;;;;18.80;55.17;100168.44;10456063;28;20143;-74
2022/06/01 02:46:03;;;;;;;9.57;2.72;;;;;;;19.01;54.76;100124.88;10462067;28;20489;-74
2022/06/01 02:51:04;;;;;;;12.88;3.50;;;;;;;19.36;54.40;100084.59;10461800;28;20056;-74
2022/06/01 02:56:05;;;;;;;10.48;3.53;;;;;;;21.15;51.66;100196.41;10461281;28;20480;-76
2022/06/01 03:01:06;;;;;;;17.90;2.95;;;;;;;21.71;48.32;100099.28;10461792;28;20048;-74
2022/06/01 03:06:08;;;;;;;11.65;2.92;;;;;;;23.29;46.10;100178.19;10460758;28;20420;-75
2022/06/01 03:11:09;;;;;;;14.20;3.58;;;;;;;24.41;44.89;100211.66;10460508;28;20040;-74
2022/06/01 03:16:10;;;;;;;11.43;2.97;;;;;;;24.45;43.32;100114.22;10460906;28;20467;-74
2022/06/01 03:21:10;;;;;;;9.10;3.25;;;;;;;25.77;41.86;100211.56;10461018;28;20127;-75
2022/06/01 03:26:12;;;;;;;11.15;3.30;;;;;;;26.52;40.91;100217.22;10460412;28;20033;-74
2022/06/01 03:31:13;;;;;;;18.13;3.13;;;;;;;26.39;40.15;100127.91;10460385;28;20128;-75
2022/06/01 03:36:15;;;;;;;10.52;2.90;;;;;;;27.30;39.27;100224.78;10459779;28;20115;-75
2022/06/01 03:41:16;;;;;;;9.52;3.05;;;;;;;27.51;38.45;100228.19;10460730;28;20579;-75
2022/06/01 03:46:17;;;;;;;10.65;2.70;;;;;;;27.83;38.09;100224.19;10459711;28;20128;-75
2022/06/01 03:51:18;;;;;;;12.05;3.08;;;;;;;28.51;36.90;100217.81;10458563;28;20085;-74
2022/06/01 03:56:22;;;;;;;19.42;3.65;;;;;;;28.89;36.24;100231.56;10458980;28;20076;-74
2022/06/01 04:01:23;;;;;;;7.85;2.92;;;;;;;28.78;35.40;100192.63;10468579;28;20128;-75
2022/06/01 04:06:23;;;;;;;16.83;3.78;;;;;;;29.44;34.65;100217.44;10500587;28;20448;-76
2022/06/01 04:11:24;;;;;;;10.65;3.05;;;;;;;29.87;34.01;100240.03;10499582;28;20048;-76
2022/06/01 04:16:25;;;;;;;11.65;3.10;;;;;;;29.82;33.82;100253.81;10494250;28;20052;-75
2022/06/01 04:21:30;;;;;;;14.55;2.85;;;;;;;29.01;34.12;100184.66;10477019;28;20056;-75
2022/06/01 04:26:32;;;;;;;10.35;3.03;;;;;;;29.05;33.13;100249.44;10494292;28;20119;-75
2022/06/01 04:31:33;;;;;;;10.52;2.90;;;;;;;29.44;33.15;100233.88;10490515;28;20053;-75
2022/06/01 04:36:34;;;;;;;12.00;2.70;;;;;;;29.01;32.91;100244.81;10493882;28;20496;-76
2022/06/01 04:41:35;;;;;;;9.07;2.20;;;;;;;28.87;32.97;100225.59;10481417;28;20106;-75
2022/06/01 04:46:36;;;;;;;24.58;2.70;;;;;;;29.23;32.25;100236.91;10458353;28;20079;-76
2022/06/01 04:51:38;;;;;;;9.75;2.72;;;;;;;29.41;31.59;100251.69;10480345;28;20068;-75
2022/06/01 04:56:39;;;;;;;8.77;2.72;;;;;;;29.78;31.17;100230.88;10497183;28;20044;-74
2022/06/01 05:01:39;;;;;;;8.88;2.35;;;;;;;29.60;31.47;100237.97;10498524;28;20157;-75
2022/06/01 05:06:40;;;;;;;8.55;2.78;;;;;;;29.10;31.49;100156.38;10497312;28;20381;-75
2022/06/01 05:11:41;;;;;;;11.98;3.08;;;;;;;29.05;32.23;100218.56;10498310;28;20559;-74
2022/06/01 05:16:42;;;;;;;11.20;3.60;;;;;;;28.70;33.37;100214.31;10497380;28;20040;-74
2022/06/01 05:21:43;;;;;;;15.40;2.83;;;;;;;27.74;33.87;100114.78;10496508;28;20047;-74
2022/06/01 05:26:44;;;;;;;11.95;3.20;;;;;;;28.49;34.24;100249.28;10480291;28;20063;-74
2022/06/01 05:31:45;;;;;;;8.77;2.35;;;;;;;27.44;33.66;100110.41;10492999;28;20036;-75
2022/06/01 05:36:45;;;;;;;12.75;2.65;;;;;;;28.30;33.38;100225.41;10491674;28;20561;-74
2022/06/01 05:41:46;;;;;;;17.10;2.47;;;;;;;28.62;33.09;100241.19;10495541;28;20385;-74
2022/06/01 05:46:56;;;;;;;20.75;2.85;;;;;;;28.66;33.36;100235.97;10491164;28;20068;-74
2022/06/01 05:51:57;;;;;;;6.80;2.33;;;;;;;29.02;33.18;100241.03;10470819;28;20049;-79
2022/06/01 05:56:58;;;;;;;10.52;2.28;;;;;;;29.16;32.95;100239.16;10490976;28;20044;-74
2022/06/01 06:01:59;;;;;;;28.30;2.78;;;;;;;29.58;33.01;100246.47;10489736;28;20044;-74
2022/06/01 06:06:59;;;;;;;8.07;2.15;;;;;;;29.92;31.36;100239.16;10487863;28;20044;-75
2022/06/01 06:12:00;;;;;;;16.77;2.08;;;;;;;28.64;32.11;100012.13;10489521;28;20036;-75
2022/06/01 06:17:01;;;;;;;8.48;2.38;;;;;;;29.53;31.12;100123.41;10489192;28;20400;-77
2022/06/01 06:22:01;;;;;;;6.47;1.75;;;;;;;29.00;28.67;100017.03;10489582;28;20032;-74
2022/06/01 06:27:02;;;;;;;10.52;2.10;;;;;;;30.54;28.03;100225.16;10472766;28;20411;-78
2022/06/01 06:32:03;;;;;;;24.27;5.18;;;;;;;30.29;27.89;100147.81;10489510;28;20055;-77
2022/06/01 06:37:04;;;;;;;12.45;3.17;;;;;;;30.83;27.41;100225.69;10489821;28;20405;-80
2022/06/01 06:42:06;;;;;;;9.93;1.70;;;;;;;30.01;26.83;100114.91;10468903;28;20048;-77
2022/06/01 06:47:06;;;;;;;12.07;1.90;;;;;;;30.69;26.54;100216.63;10490181;28;20029;-75
2022/06/01 06:52:07;;;;;;;9.35;1.73;;;;;;;30.94;26.65;100215.31;10472757;28;20516;-76
2022/06/01 06:57:08;;;;;;;15.43;2.05;;;;;;;30.40;25.66;100113.63;10473857;28;20053;-74
2022/06/01 07:02:10;;;;;;;7.50;1.70;;;;;;;31.15;25.95;100199.22;10495029;28;20044;-76
2022/06/01 07:07:11;;;;;;;8.13;1.90;;;;;;;30.32;24.77;100015.69;10494760;28;20051;-76
2022/06/01 07:12:11;;;;;;;9.95;1.98;;;;;;;31.57;24.26;100219.13;10495001;28;20063;-76
2022/06/01 07:17:12;;;;;;;8.52;1.90;;;;;;;31.42;24.48;100183.81;10493799;28;20609;-79
2022/06/01 07:22:13;;;;;;;7.53;1.73;;;;;;;31.55;24.14;100222.19;10494640;28;20036;-77
2022/06/01 07:27:13;;;;;;;14.50;1.90;;;;;;;31.53;22.96;100212.63;10493948;28;20108;-75
2022/06/01 07:32:15;;;;;;;15.02;2.75;;;;;;;31.65;22.24;100181.88;10501167;28;20040;-75
2022/06/01 07:47:54;;;;;;;10.40;1.85;;;;;;;31.92;22.46;100085.63;10501032;28;20131;-76
2022/06/01 07:52:54;;;;;;;21.52;2.00;;;;;;;32.45;21.54;100169.88;10500540;28;20559;-74
2022/06/01 07:57:55;;;;;;;14.93;2.33;;;;;;;32.45;22.38;100183.63;10501735;28;20043;-75
2022/06/01 08:02:56;;;;;;;9.27;2.17;;;;;;;32.70;21.66;100148.28;10500395;28;20048;-79
2022/06/01 08:07:57;;;;;;;11.95;4.22;;;;;;;32.14;21.73;100051.75;10500326;28;20040;-75
2022/06/01 08:19:16;;;;;;;17.48;2.63;;;;;;;32.82;20.34;100142.13;10486828;28;20044;-76
2022/06/01 08:24:18;;;;;;;14.15;2.28;;;;;;;32.48;20.44;100033.69;10499794;28;20052;-75
2022/06/01 08:29:18;;;;;;;35.75;2.88;;;;;;;33.42;20.51;100141.34;10499537;28;20093;-76
2022/06/01 08:34:19;;;;;;;16.90;2.33;;;;;;;33.62;20.09;100157.19;10499258;28;20507;-76
2022/06/01 08:39:20;;;;;;;7.40;2.00;;;;;;;32.91;19.25;100069.47;10498615;28;20047;-78
2022/06/01 08:44:30;;;;;;;6.45;1.70;;;;;;;33.64;19.42;100163.19;10463746;28;20045;-75
2022/06/01 08:49:33;;;;;;;10.00;1.65;;;;;;;33.82;19.57;100172.22;10457828;28;20159;-76
2022/06/01 08:54:35;;;;;;;24.25;2.20;;;;;;;33.79;19.33;100152.78;10457521;28;20064;-74
2022/06/01 08:59:54;;;;;;;25.30;2.47;;;;;;;33.89;19.13;100146.91;10457380;28;20504;-74
2022/06/01 09:05:39;;;;;;;20.17;2.88;;;;;;;33.94;18.62;100121.94;10456810;28;20044;-77
2022/06/01 09:10:46;;;;;;;12.63;1.85;;;;;;;33.20;19.15;100032.22;10418872;28;20060;-75
2022/06/01 09:16:10;;;;;;;5.60;1.92;;;;;;;34.09;18.59;100137.16;10455900;28;20037;-76
2022/06/01 09:26:58;;;;;;;13.30;2.40;;;;;;;34.18;19.53;100117.81;10455687;28;20040;-77
2022/06/01 09:32:05;;;;;;;13.43;2.13;;;;;;;34.21;18.70;100128.97;10461914;28;20044;-77
2022/06/01 09:37:08;;;;;;;17.75;2.53;;;;;;;34.17;18.93;100117.00;10482811;28;20079;-75
2022/06/01 09:42:37;;;;;;;20.98;3.08;;;;;;;34.39;18.93;100115.09;10495107;28;20496;-75
2022/06/01 09:47:43;;;;;;;11.88;2.03;;;;;;;34.06;19.06;100097.28;10493856;28;20064;-75
2022/06/01 09:52:45;;;;;;;19.10;3.08;;;;;;;33.73;19.41;100019.13;10470648;28;20521;-80
2022/06/01 09:58:06;;;;;;;13.13;2.22;;;;;;;34.33;19.50;100108.97;10454180;28;20095;-77
2022/06/01 10:09:09;;;;;;;10.30;1.90;;;;;;;33.72;19.80;100089.13;10453959;28;20048;-80
2022/06/01 10:14:20;;;;;;;15.63;2.83;;;;;;;33.28;19.88;100082.91;10442145;28;20124;-76
2022/06/01 10:19:29;;;;;;;22.17;2.40;;;;;;;32.39;19.96;99994.38;10435572;28;20039;-74
2022/06/01 10:24:40;;;;;;;12.00;2.40;;;;;;;32.70;20.51;100063.00;10446792;28;20162;-77
2022/06/01 10:30:21;;;;;;;12.32;2.00;;;;;;;33.59;19.91;100074.41;10445970;28;20049;-75
2022/06/01 10:35:48;;;;;;;10.30;2.10;;;;;;;34.09;18.47;100069.03;10372932;28;20564;-76
2022/06/01 10:40:58;;;;;;;13.95;2.55;;;;;;;33.91;19.62;99984.81;10403856;28;20056;-73
2022/06/01 10:46:09;;;;;;;11.98;2.25;;;;;;;34.46;19.02;100057.47;10412013;28;20041;-75
2022/06/01 10:51:16;;;;;;;13.77;2.27;;;;;;;34.40;19.23;100043.06;10424421;28;20119;-75
2022/06/01 10:56:21;;;;;;;27.48;3.35;;;;;;;34.83;19.38;100061.25;10453603;28;20099;-79
2022/06/01 11:01:40;;;;;;;33.97;4.25;;;;;;;35.10;18.41;100070.94;10454946;28;20104;-76
2022/06/01 11:06:58;;;;;;;19.23;2.95;;;;;;;35.02;19.11;100046.16;10461468;28;20132;-75
2022/06/01 11:12:15;;;;;;;11.63;2.70;;;;;;;35.06;18.46;100063.69;10440693;28;20527;-75
2022/06/01 11:17:31;;;;;;;18.88;2.60;;;;;;;34.45;18.36;99973.91;10485368;28;20036;-77
2022/06/01 11:22:47;;;;;;;12.52;2.25;;;;;;;35.22;18.26;100062.72;10484415;28;20498;-76
2022/06/01 11:27:53;;;;;;;9.02;2.90;;;;;;;34.98;18.01;100057.88;10501257;28;20044;-79
2022/06/01 11:33:06;;;;;;;11.90;2.60;;;;;;;35.08;18.38;100053.91;10487507;28;20052;-77
2022/06/01 11:38:17;;;;;;;29.70;3.95;;;;;;;35.23;19.19;100044.19;10484783;28;20048;-75
2022/06/01 11:43:29;;;;;;;18.33;3.13;;;;;;;35.16;18.21;100049.47;10488632;28;20056;-81
2022/06/01 11:48:34;;;;;;;15.57;2.50;;;;;;;35.14;18.28;100029.66;10478768;28;20044;-77
2022/06/01 11:53:45;;;;;;;17.35;3.33;;;;;;;35.21;17.48;100019.69;10479905;28;20098;-76
2022/06/01 11:59:02;;;;;;;77.10;5.63;;;;;;;34.81;18.24;99942.13;10480101;28;20051;-76
2022/06/01 12:04:49;;;;;;;11.95;2.40;;;;;;;35.18;17.00;100016.78;10500172;28;20049;-78
2022/06/01 12:10:00;;;;;;;16.67;3.22;;;;;;;35.07;17.13;99993.53;10499812;28;20090;-76
2022/06/01 12:15:24;;;;;;;14.07;3.30;;;;;;;35.11;17.87;100003.53;10479906;28;20052;-78
2022/06/01 12:20:33;;;;;;;12.05;3.00;;;;;;;34.84;17.80;99941.47;10499183;28;20063;-75
2022/06/01 12:31:28;;;;;;;13.05;2.47;;;;;;;35.27;17.48;100030.50;10495215;28;20035;-76
2022/06/01 12:37:07;;;;;;;8.52;2.42;;;;;;;34.48;18.01;99915.34;10496013;28;20420;-77
2022/06/01 12:42:18;;;;;;;16.00;2.63;;;;;;;34.91;18.79;100021.75;10496035;28;20049;-75
2022/06/01 12:47:36;;;;;;;10.13;2.65;;;;;;;34.58;18.80;100001.59;10468888;28;20041;-75
2022/06/01 12:52:38;;;;;;;14.57;2.47;;;;;;;34.31;18.54;100014.75;10467898;28;20056;-76
2022/06/01 12:57:47;;;;;;;12.40;2.50;;;;;;;34.06;18.69;99970.50;10493677;28;20044;-78
2022/06/01 13:02:48;;;;;;;9.10;2.33;;;;;;;34.30;18.80;100013.13;10490968;28;20135;-76
2022/06/01 13:07:59;;;;;;;12.30;2.20;;;;;;;33.57;19.11;99912.28;10463741;28;20139;-77
2022/06/01 13:13:09;;;;;;;17.60;2.90;;;;;;;33.73;19.46;99986.06;10474369;28;20045;-75
2022/06/01 13:18:21;;;;;;;18.45;2.40;;;;;;;33.64;19.59;100011.69;10456984;28;20065;-76
2022/06/01 13:23:25;;;;;;;15.30;2.88;;;;;;;33.36;19.10;100018.75;10491038;28;20044;-77
2022/06/01 13:28:26;;;;;;;24.90;2.75;;;;;;;32.69;19.91;99915.59;10493647;28;20539;-79
2022/06/01 13:33:35;;;;;;;13.70;2.85;;;;;;;33.33;19.50;100011.97;10492983;28;20135;-78
2022/06/01 13:38:49;;;;;;;35.25;3.78;;;;;;;33.14;19.88;99992.25;10478758;28;20049;-75
2022/06/01 13:49:17;;;;;;;37.60;5.50;;;;;;;32.70;20.58;99959.31;11602428;23;20058;-79
2022/06/01 13:54:36;;;;;;;38.42;4.72;;;;;;;33.09;21.57;99996.00;10239294;28;20092;-76
2022/06/01 13:59:40;;;;;;;29.05;4.13;;;;;;;32.44;21.69;99922.75;10252129;28;20047;-80
2022/06/01 14:04:48;;;;;;;20.90;3.28;;;;;;;32.84;22.11;100002.31;10251914;29;20146;-78
2022/06/01 14:10:00;;;;;;;12.48;2.72;;;;;;;32.95;22.48;100022.84;10251838;29;20043;-78
2022/06/01 14:15:01;;;;;;;;;;;;;;;33.26;22.29;100017.16;10262000;28;20399;-82
2022/06/01 14:20:01;;;;;;;16.92;3.45;;;;;;;32.91;21.69;100005.41;10251785;29;19922;-83
2022/06/01 14:30:22;;;;;;;36.97;5.40;;;;;;;32.96;22.39;100006.00;10248363;29;20054;-79
2022/06/01 14:35:22;;;;;;;23.70;4.55;;;;;;;33.22;21.58;100027.22;10251551;28;20050;-79
2022/06/01 14:40:23;;;;;;;32.95;7.20;;;;;;;33.05;21.85;99999.72;10258718;29;20054;-79
2022/06/01 14:45:24;;;;;;;13.75;3.90;;;;;;;33.19;21.70;100025.91;10259282;29;20043;-78
2022/06/01 14:50:25;;;;;;;32.67;12.35;;;;;;;32.92;21.92;100012.50;10261793;28;20418;-76
2022/06/01 14:55:26;;;;;;;75.50;10.35;;;;;;;32.89;22.85;100026.91;10258065;29;20439;-75
2022/06/01 15:00:26;;;;;;;63.50;7.13;;;;;;;32.17;24.28;99940.38;10259199;29;20039;-77
2022/06/01 15:05:28;;;;;;;17.38;3.35;;;;;;;32.56;24.26;100046.66;10257978;29;20043;-75
2022/06/01 15:10:29;;;;;;;27.03;4.00;;;;;;;32.36;24.39;100025.25;10258612;29;20044;-77
2022/06/01 15:15:30;;;;;;;102.38;7.47;;;;;;;32.36;24.90;100061.00;10257976;29;20070;-75
2022/06/01 15:20:31;;;;;;;43.42;5.03;;;;;;;32.15;24.60;100064.34;10257469;29;20039;-75
2022/06/01 15:25:32;;;;;;;23.08;3.20;;;;;;;31.58;25.22;100003.84;10258443;29;20066;-75
2022/06/01 15:41:11;;;;;;;35.05;4.20;;;;;;;30.49;26.79;99949.25;10255749;29;20113;-77
2022/06/01 15:46:28;;;;;;;15.70;2.70;;;;;;;31.04;26.75;100071.63;10257187;29;20054;-77
2022/06/01 15:51:30;;;;;;;11.35;2.60;;;;;;;30.66;27.18;100055.47;10256514;28;20067;-77
2022/06/01 15:56:31;;;;;;;27.70;2.92;;;;;;;30.66;27.45;100089.22;10257245;29;20050;-77
2022/06/01 16:01:34;;;;;;;31.77;3.42;;;;;;;30.42;28.12;100086.72;10256423;29;20035;-76
2022/06/01 16:06:34;;;;;;;17.10;2.30;;;;;;;30.28;27.92;100085.94;10257193;29;20047;-78
2022/06/01 16:11:35;;;;;;;14.73;2.25;;;;;;;29.53;28.17;99986.56;10256590;28;20282;-76
2022/06/01 16:16:40;;;;;;;17.70;2.85;;;;;;;29.72;28.51;100054.94;10264411;28;20380;-76
2022/06/01 16:21:41;;;;;;;19.80;3.80;;;;;;;29.75;28.42;100094.59;10256825;29;20047;-75
2022/06/01 16:26:42;;;;;;;30.15;4.35;;;;;;;29.55;28.97;100098.47;10254358;29;20039;-77
2022/06/01 16:31:46;;;;;;;25.08;3.50;;;;;;;29.18;29.58;100096.66;10255387;29;20102;-76
2022/06/01 16:36:46;;;;;;;53.60;5.80;;;;;;;28.94;30.34;100100.25;10250440;28;20039;-77
2022/06/01 16:41:48;;;;;;;23.98;3.63;;;;;;;28.67;30.80;100101.72;10252908;29;20458;-78
2022/06/01 16:46:49;;;;;;;17.23;2.53;;;;;;;28.46;30.85;100108.56;10253659;29;20043;-75
2022/06/01 16:51:50;;;;;;;13.82;3.22;;;;;;;28.28;30.81;100107.41;10255085;29;20434;-77
2022/06/01 16:56:51;;;;;;;20.17;2.95;;;;;;;28.28;30.09;100110.13;10253891;29;20050;-77
2022/06/01 17:01:51;;;;;;;13.85;2.40;;;;;;;28.11;30.20;100098.84;10253649;28;20051;-74
2022/06/01 17:06:52;;;;;;;18.60;3.15;;;;;;;27.93;30.42;100092.22;10253556;29;20507;-75
2022/06/01 17:11:53;;;;;;;13.00;2.42;;;;;;;27.42;29.96;100024.50;10253903;29;20039;-74
2022/06/01 17:16:54;;;;;;;16.20;2.63;;;;;;;27.13;29.54;99999.91;10253606;29;20146;-76
2022/06/01 17:21:55;;;;;;;16.65;2.95;;;;;;;27.74;29.31;100122.97;10253557;29;20118;-75
2022/06/01 17:26:55;;;;;;;18.35;2.55;;;;;;;27.52;28.93;100107.06;10253650;29;20035;-74
2022/06/01 17:31:57;;;;;;;10.52;2.47;;;;;;;27.60;29.00;100151.22;10253252;28;20043;-76
2022/06/01 17:36:58;;;;;;;15.63;3.47;;;;;;;26.72;28.53;100030.25;10253032;29;20067;-79
2022/06/01 17:41:59;;;;;;;20.92;7.47;;;;;;;27.25;28.73;100153.94;10252726;29;20081;-76
2022/06/01 17:47:03;;;;;;;15.00;5.07;;;;;;;26.32;28.87;100018.44;10250431;29;20102;-75
2022/06/01 17:52:03;;;;;;;19.85;3.78;;;;;;;26.97;28.73;100143.72;10250239;29;20106;-78
2022/06/01 17:57:04;;;;;;;25.98;4.88;;;;;;;26.08;28.39;100016.38;10256581;28;20043;-80
2022/06/01 18:02:05;;;;;;;17.42;5.30;;;;;;;26.39;28.73;100087.88;10264135;28;20054;-77
2022/06/01 18:07:07;;;;;;;12.60;2.75;;;;;;;26.70;28.83;100166.75;10267003;28;20050;-77
2022/06/01 18:12:08;;;;;;;16.75;2.40;;;;;;;26.55;29.16;100166.81;10263357;28;20039;-77
2022/06/01 18:17:09;;;;;;;19.80;2.53;;;;;;;25.87;28.98;100064.63;10259070;28;20046;-80
2022/06/01 18:22:09;;;;;;;11.98;2.40;;;;;;;26.44;28.87;100170.63;10270824;28;20054;-78
2022/06/01 18:27:10;;;;;;;84.82;7.03;;;;;;;24.96;29.07;99935.84;10268761;28;20043;-76
2022/06/01 18:32:11;;;;;;;8.63;2.00;;;;;;;25.43;29.20;100016.28;10269899;28;20128;-76
2022/06/01 18:37:13;;;;;;;16.17;2.72;;;;;;;26.06;29.29;100134.81;10255988;28;20046;-76
2022/06/01 18:42:15;;;;;;;12.75;2.45;;;;;;;26.08;29.34;100154.38;10254583;28;20047;-73
2022/06/01 18:47:16;;;;;;;23.08;2.40;;;;;;;25.85;29.76;100167.50;10250415;29;20407;-76
2022/06/01 18:52:21;;;;;;;14.23;2.58;;;;;;;25.66;30.45;100169.09;10233365;29;20047;-76
2022/06/01 18:57:22;;;;;;;14.02;2.20;;;;;;;25.31;30.67;100138.09;10250365;29;20050;-76
2022/06/01 19:02:25;;;;;;;11.10;2.17;;;;;;;24.50;30.63;100022.75;10248685;29;20070;-75
2022/06/01 19:07:26;;;;;;;12.02;1.98;;;;;;;25.31;30.61;100159.84;10249886;29;20047;-74
2022/06/01 19:12:28;;;;;;;9.20;1.52;;;;;;;25.20;30.88;100158.22;10250505;29;20050;-76
2022/06/01 19:17:30;;;;;;;7.57;1.47;;;;;;;24.93;30.85;100129.31;10250314;29;20058;-76
2022/06/01 19:22:31;;;;;;;15.77;1.73;;;;;;;24.58;31.23;100103.66;10251596;28;20131;-74
2022/06/01 19:27:39;;;;;;;12.32;1.65;;;;;;;23.65;32.12;100006.59;10273526;28;20138;-80
2022/06/01 19:32:40;;;;;;;9.43;1.80;;;;;;;24.64;32.23;100166.16;10274908;28;20525;-76
2022/06/01 19:48:21;;;;;;;11.25;1.83;;;;;;;24.25;34.02;100170.00;10275596;28;20055;-79
2022/06/01 19:53:21;;;;;;;21.13;1.90;;;;;;;24.14;34.87;100180.00;10272015;28;20174;-74
2022/06/01 19:58:22;;;;;;;12.95;2.38;;;;;;;23.99;35.76;100182.63;10274097;28;20125;-75
2022/06/01 20:03:23;;;;;;;5.82;1.70;;;;;;;23.84;36.77;100180.63;10275582;28;20172;-75
2022/06/01 20:08:23;;;;;;;10.88;1.95;;;;;;;23.79;37.62;100183.28;10273559;28;20495;-75
2022/06/01 20:13:24;;;;;;;10.48;2.15;;;;;;;22.69;38.79;100025.59;10271159;28;20035;-75
2022/06/01 20:18:26;;;;;;;13.18;1.70;;;;;;;23.42;39.85;100161.50;10255431;29;20416;-74
2022/06/01 20:23:27;;;;;;;11.40;1.92;;;;;;;23.25;40.58;100153.50;10255319;29;20072;-77
2022/06/01 20:28:27;;;;;;;11.55;2.28;;;;;;;22.68;41.10;100080.84;10255568;29;20039;-78
2022/06/01 20:33:29;;;;;;;13.10;2.00;;;;;;;23.07;42.26;100145.72;10254092;28;20077;-76
2022/06/01 20:38:29;;;;;;;8.73;2.17;;;;;;;23.20;43.23;100189.47;10263337;28;20577;-77
2022/06/01 20:43:30;;;;;;;18.98;1.85;;;;;;;22.43;43.63;100090.28;10267339;28;20039;-79
2022/06/01 20:48:31;;;;;;;10.55;1.98;;;;;;;22.30;44.68;100093.38;10254935;29;20059;-78
2022/06/01 20:53:35;;;;;;;8.68;1.88;;;;;;;22.88;46.80;100213.72;10255269;29;20043;-76
2022/06/01 20:58:36;;;;;;;10.40;2.08;;;;;;;22.86;46.06;100212.38;10254952;29;20050;-76
2022/06/01 21:03:37;;;;;;;17.33;2.35;;;;;;;22.83;46.39;100208.28;10254014;29;20129;-76
2022/06/01 21:08:38;;;;;;;14.05;2.15;;;;;;;22.82;46.87;100213.94;10253595;29;20043;-78
2022/06/01 21:13:40;;;;;;;11.00;1.75;;;;;;;22.81;47.29;100236.69;10253762;29;20043;-77
2022/06/01 21:18:40;;;;;;;14.27;2.20;;;;;;;22.79;47.81;100228.78;10254157;29;20039;-77
2022/06/01 21:23:41;;;;;;;6.88;1.85;;;;;;;22.01;47.91;100119.72;10253542;29;20039;-79
2022/06/01 21:28:42;;;;;;;5.55;1.75;;;;;;;22.76;48.59;100235.56;10253548;29;20047;-80
2022/06/01 21:33:43;;;;;;;16.27;2.10;;;;;;;22.74;48.88;100237.69;10253295;29;20513;-81
2022/06/01 21:38:43;;;;;;;7.57;2.00;;;;;;;21.79;49.65;100108.88;10252675;29;20035;-79
2022/06/01 21:43:44;;;;;;;13.10;1.92;;;;;;;22.53;50.34;100242.00;10252872;29;20043;-81
2022/06/01 21:48:44;;;;;;;8.68;1.92;;;;;;;22.36;51.77;100253.94;10251385;28;20527;-80
2022/06/01 21:53:45;;;;;;;7.28;1.70;;;;;;;22.24;52.63;100265.66;10252073;29;20498;-79
2022/06/01 21:58:46;;;;;;;12.23;1.98;;;;;;;21.68;53.44;100216.03;10252967;29;20398;-83
2022/06/01 22:03:47;;;;;;;14.98;2.15;;;;;;;21.34;54.41;100164.59;10252503;29;20071;-80
2022/06/01 22:08:48;;;;;;;9.43;2.10;;;;;;;21.88;55.23;100261.53;10252728;29;20047;-81
2022/06/01 22:13:48;;;;;;;13.88;2.13;;;;;;;21.92;56.04;100272.66;10252025;29;20085;-80
2022/06/01 22:18:51;;;;;;;10.27;2.33;;;;;;;21.50;56.98;100225.16;10252642;29;20049;-79
2022/06/01 22:23:52;;;;;;;10.48;2.38;;;;;;;21.31;57.47;100239.94;10251884;29;20067;-76
2022/06/01 22:28:53;;;;;;;13.95;1.95;;;;;;;21.56;57.09;100269.34;10251262;29;20125;-75
2022/06/01 22:33:53;;;;;;;9.98;2.05;;;;;;;21.41;55.42;100242.84;10251687;29;20037;-76
2022/06/01 22:38:55;;;;;;;8.02;1.83;;;;;;;21.62;53.14;100263.78;10250880;29;20067;-76
2022/06/01 22:44:01;;;;;;;9.45;2.00;;;;;;;21.53;53.77;100249.00;10251490;29;20047;-78
2022/06/01 22:49:04;;;;;;;8.77;1.60;;;;;;;21.51;55.41;100272.78;10251936;29;20066;-76
2022/06/01 22:54:05;;;;;;;14.20;1.92;;;;;;;21.53;56.61;100289.56;10251182;29;20058;-79
2022/06/01 22:59:05;;;;;;;9.75;2.53;;;;;;;21.48;57.91;100299.44;10255110;28;20035;-79
2022/06/01 23:04:06;;;;;;;9.05;1.98;;;;;;;21.29;59.11;100293.38;10258074;29;20043;-80
2022/06/01 23:09:07;;;;;;;7.28;1.90;;;;;;;21.21;60.34;100281.09;10256504;29;20067;-78
2022/06/01 23:14:08;;;;;;;8.85;2.55;;;;;;;20.39;61.41;100181.31;10280495;28;20046;-80
2022/06/01 23:19:09;;;;;;;7.82;2.17;;;;;;;19.96;62.50;100148.28;10277876;28;20046;-78
2022/06/01 23:24:10;;;;;;;11.50;2.20;;;;;;;20.57;63.39;100320.72;10258114;29;20061;-78
2022/06/01 23:29:26;;;;;;;8.13;2.40;;;;;;;20.24;67.54;100311.28;10258321;29;20047;-79
2022/06/01 23:34:58;;;;;;;9.60;2.40;;;;;;;18.46;68.19;100082.75;10257372;29;20499;-78
2022/06/01 23:40:17;;;;;;;8.23;3.10;;;;;;;19.08;66.71;100192.09;10257112;29;20066;-79
2022/06/01 23:45:36;;;;;;;12.02;2.95;;;;;;;19.86;71.16;100315.16;10253516;29;20043;-78
2022/06/01 23:50:49;;;;;;;10.55;2.42;;;;;;;19.64;71.36;100309.44;10256536;28;20513;-78
2022/06/01 23:56:17;;;;;;;8.53;2.27;;;;;;;18.93;70.50;100205.94;10257472;29;20495;-79
